createdAt,value
2018-04-12T00:00:42.571Z,91774.11
2018-04-12T00:03:08.843Z,91769.87
2018-04-12T00:05:35.163Z,91771.44
2018-04-12T00:08:01.530Z,91773.83
2018-04-12T00:10:27.819Z,91781.00
2018-04-12T00:12:54.185Z,91780.83
2018-04-12T00:15:20.612Z,91785.72
2018-04-12T00:17:47.051Z,91783.20
2018-04-12T00:20:13.426Z,91781.62
2018-04-12T00:22:40.058Z,91785.50
2018-04-12T00:25:06.584Z,91779.73
2018-04-12T00:27:32.960Z,91788.48
2018-04-12T00:29:59.315Z,91786.39
2018-04-12T00:32:25.726Z,91785.25
2018-04-12T00:34:52.202Z,91783.87
2018-04-12T00:37:18.553Z,91781.72
2018-04-12T00:39:44.911Z,91778.88
2018-04-12T00:42:11.214Z,91784.56
2018-04-12T00:44:37.492Z,91778.34
2018-04-12T00:47:03.929Z,91778.15
2018-04-12T00:49:30.331Z,91780.16
2018-04-12T00:51:56.649Z,91785.95
2018-04-12T00:54:22.984Z,91779.41
2018-04-12T00:56:49.374Z,91785.63
2018-04-12T00:59:15.698Z,91783.64
2018-04-12T01:01:42.014Z,91779.47
2018-04-12T01:04:08.300Z,91778.95
2018-04-12T01:06:35.707Z,91783.64
2018-04-12T01:09:02.068Z,91782.52
2018-04-12T01:11:28.380Z,91783.61
2018-04-12T01:13:54.821Z,91782.75
2018-04-12T01:16:21.193Z,91776.84
2018-04-12T01:18:47.566Z,91776.47
2018-04-12T01:21:13.837Z,91775.23
2018-04-12T01:23:40.108Z,91781.08
2018-04-12T01:26:06.779Z,91791.61
2018-04-12T01:28:33.523Z,91785.87
2018-04-12T01:30:59.811Z,91780.34
2018-04-12T01:33:26.302Z,91779.92
2018-04-12T01:35:52.688Z,91782.67
2018-04-12T01:38:18.959Z,91778.17
2018-04-12T01:40:45.284Z,91781.48
2018-04-12T01:43:11.663Z,91783.44
2018-04-12T01:45:38.098Z,91783.85
2018-04-12T01:48:04.396Z,91786.25
2018-04-12T01:50:30.665Z,91787.93
2018-04-12T01:52:57.437Z,91783.20
2018-04-12T01:55:23.719Z,91785.34
2018-04-12T01:57:50.033Z,91781.26
2018-04-12T02:00:16.303Z,91784.38
2018-04-12T02:02:42.584Z,91786.78
2018-04-12T02:05:08.930Z,91783.05
2018-04-12T02:07:36.352Z,91780.92
2018-04-12T02:10:02.699Z,91775.50
2018-04-12T02:12:28.973Z,91783.67
2018-04-12T02:14:55.299Z,91782.39
2018-04-12T02:17:21.563Z,91779.50
2018-04-12T02:19:47.864Z,91779.48
2018-04-12T02:22:18.016Z,91776.91
2018-04-12T02:24:44.304Z,91778.19
2018-04-12T02:27:10.590Z,91780.23
2018-04-12T02:29:37.012Z,91776.92
2018-04-12T02:32:03.316Z,91777.98
2018-04-12T02:34:29.609Z,91773.94
2018-04-12T02:36:55.932Z,91768.14
2018-04-12T02:39:22.204Z,91768.87
2018-04-12T02:41:48.479Z,91770.41
2018-04-12T02:44:18.019Z,91765.70
2018-04-12T02:46:44.288Z,91767.36
2018-04-12T02:49:10.566Z,91769.02
2018-04-12T02:51:37.065Z,91774.52
2018-04-12T02:54:03.382Z,91784.87
2018-04-12T02:56:29.663Z,91776.45
2018-04-12T02:58:56.027Z,91784.61
2018-04-12T03:01:22.348Z,91784.20
2018-04-12T03:03:48.668Z,91783.44
2018-04-12T03:06:15.004Z,91792.52
2018-04-12T03:08:41.272Z,91792.49
2018-04-12T03:11:07.541Z,91798.78
2018-04-12T03:13:34.968Z,91795.69
2018-04-12T03:16:01.251Z,91798.20
2018-04-12T03:18:27.610Z,91803.29
2018-04-12T03:20:53.903Z,91804.69
2018-04-12T03:23:20.229Z,91803.34
2018-04-12T03:25:46.550Z,91805.33
2018-04-12T03:28:12.949Z,91804.95
2018-04-12T03:30:39.211Z,91801.23
2018-04-12T03:33:05.475Z,91803.64
2018-04-12T03:35:32.249Z,91811.93
2018-04-12T03:37:58.520Z,91817.13
2018-04-12T03:40:24.795Z,91817.88
2018-04-12T03:42:51.123Z,91823.57
2018-04-12T03:45:17.500Z,91821.88
2018-04-12T03:47:43.767Z,91826.68
2018-04-12T03:50:10.248Z,91823.56
2018-04-12T03:52:39.703Z,91833.08
2018-04-12T03:55:06.680Z,91831.03
2018-04-12T03:57:33.378Z,91826.19
2018-04-12T03:59:59.705Z,91822.79
2018-04-12T04:02:26.058Z,91831.49
2018-04-12T04:04:52.337Z,91828.75
2018-04-12T04:07:18.653Z,91828.51
2018-04-12T04:09:44.975Z,91826.95
2018-04-12T04:12:11.343Z,91829.50
2018-04-12T04:14:49.656Z,91831.60
2018-04-12T04:17:28.555Z,91827.34
2018-04-12T04:20:07.046Z,91830.31
2018-04-12T04:22:33.512Z,91833.66
2018-04-12T04:25:02.981Z,91832.78
2018-04-12T04:27:29.275Z,91830.04
2018-04-12T04:29:55.635Z,91835.38
2018-04-12T04:32:21.910Z,91833.88
2018-04-12T04:34:48.204Z,91839.27
2018-04-12T04:37:14.976Z,91840.37
2018-04-12T04:39:41.246Z,91849.70
2018-04-12T04:42:07.630Z,91846.53
2018-04-12T04:44:33.945Z,91849.12
2018-04-12T04:47:00.323Z,91848.27
2018-04-12T04:49:26.652Z,91847.11
2018-04-12T04:51:52.984Z,91849.61
2018-04-12T04:54:20.125Z,91849.28
2018-04-12T04:56:46.520Z,91850.22
2018-04-12T04:59:12.793Z,91852.04
2018-04-12T05:01:39.124Z,91848.92
2018-04-12T05:04:05.448Z,91849.89
2018-04-12T05:06:32.411Z,91853.22
2018-04-12T05:08:58.729Z,91853.02
2018-04-12T05:11:25.252Z,91858.22
2018-04-12T05:13:51.611Z,91863.58
2018-04-12T05:16:17.879Z,91859.58
2018-04-12T05:18:44.172Z,91861.31
2018-04-12T05:21:10.494Z,91859.11
2018-04-12T05:23:37.793Z,91857.58
2018-04-12T05:26:04.124Z,91859.84
2018-04-12T05:28:30.705Z,91854.80
2018-04-12T05:30:57.081Z,91855.89
2018-04-12T05:33:23.375Z,91859.02
2018-04-12T05:35:49.666Z,91860.07
2018-04-12T05:38:31.004Z,91856.89
2018-04-12T05:40:57.300Z,91864.58
2018-04-12T05:43:23.652Z,91867.71
2018-04-12T05:45:50.281Z,91864.64
2018-04-12T05:48:16.927Z,91862.67
2018-04-12T05:50:43.208Z,91866.92
2018-04-12T05:53:09.672Z,91865.94
2018-04-12T05:55:35.941Z,91867.81
2018-04-12T05:58:02.236Z,91866.02
2018-04-12T06:00:28.579Z,91866.22
2018-04-12T06:02:54.852Z,91865.22
2018-04-12T06:05:21.140Z,91866.17
2018-04-12T06:07:47.876Z,91866.10
2018-04-12T06:10:14.493Z,91873.41
2018-04-12T06:12:40.790Z,91869.92
2018-04-12T06:15:07.082Z,91868.48
2018-04-12T06:17:33.414Z,91864.76
2018-04-12T06:19:59.687Z,91863.63
2018-04-12T06:22:25.955Z,91870.11
2018-04-12T06:24:52.703Z,91869.92
2018-04-12T06:27:18.987Z,91859.06
2018-04-12T06:29:45.256Z,91857.76
2018-04-12T06:32:11.590Z,91856.44
2018-04-12T06:34:37.901Z,91858.13
2018-04-12T06:37:04.196Z,91854.64
2018-04-12T06:39:30.556Z,91849.66
2018-04-12T06:41:56.828Z,91857.80
2018-04-12T06:44:23.185Z,91860.52
2018-04-12T06:46:49.995Z,91857.44
2018-04-12T06:49:16.439Z,91859.00
2018-04-12T06:51:42.729Z,91862.98
2018-04-12T06:54:09.163Z,91861.09
2018-04-12T06:56:35.799Z,91864.56
2018-04-12T06:59:02.085Z,91864.45
2018-04-12T07:01:31.656Z,91858.18
2018-04-12T07:03:57.956Z,91858.39
2018-04-12T07:06:24.231Z,91853.11
2018-04-12T07:08:50.567Z,91854.89
2018-04-12T07:11:16.868Z,91857.23
2018-04-12T07:13:43.292Z,91853.66
2018-04-12T07:16:09.574Z,91854.80
2018-04-12T07:18:35.860Z,91857.20
2018-04-12T07:21:02.412Z,91853.55
2018-04-12T07:23:28.703Z,91853.98
2018-04-12T07:25:55.047Z,91859.80
2018-04-12T07:28:21.328Z,91857.28
2018-04-12T07:30:47.619Z,91854.98
2018-04-12T07:33:14.168Z,91856.13
2018-04-12T07:35:40.459Z,91849.45
2018-04-12T07:38:06.796Z,91846.14
2018-04-12T07:40:33.281Z,91845.76
2018-04-12T07:42:59.567Z,91849.84
2018-04-12T07:45:28.668Z,91841.80
2018-04-12T07:47:54.996Z,91849.64
2018-04-12T07:50:21.396Z,91845.06
2018-04-12T07:52:47.759Z,91838.22
2018-04-12T07:55:14.039Z,91850.06
2018-04-12T07:57:40.366Z,91851.19
2018-04-12T08:00:06.756Z,91850.50
2018-04-12T08:02:33.112Z,91853.02
2018-04-12T08:04:59.397Z,91853.91
2018-04-12T08:07:25.845Z,91855.11
2018-04-12T08:09:58.150Z,91855.55
2018-04-12T08:12:24.488Z,91850.15
2018-04-12T08:14:50.997Z,91841.17
2018-04-12T08:17:17.373Z,91834.84
2018-04-12T08:19:43.762Z,91838.61
2018-04-12T08:22:10.036Z,91836.62
2018-04-12T08:24:36.337Z,91835.69
2018-04-12T08:27:02.607Z,91835.53
2018-04-12T08:29:28.984Z,91832.03
2018-04-12T08:31:55.271Z,91832.63
2018-04-12T08:34:21.547Z,91823.27
2018-04-12T08:36:47.931Z,91835.80
2018-04-12T08:39:14.207Z,91833.83
2018-04-12T08:41:40.493Z,91837.45
2018-04-12T08:44:06.886Z,91830.49
2018-04-12T08:46:33.688Z,91831.67
2018-04-12T08:49:00.504Z,91823.98
2018-04-12T08:51:27.280Z,91826.29
2018-04-12T08:53:53.622Z,91822.45
2018-04-12T08:56:20.010Z,91822.23
2018-04-12T08:58:46.311Z,91823.54
2018-04-12T09:01:12.604Z,91815.48
2018-04-12T09:03:38.932Z,91816.23
2018-04-12T09:06:05.246Z,91806.97
2018-04-12T09:08:31.547Z,91813.52
2018-04-12T09:10:57.948Z,91812.44
2018-04-12T09:13:24.939Z,91801.15
2018-04-12T09:15:51.220Z,91799.36
2018-04-12T09:18:17.506Z,91797.42
2018-04-12T09:20:43.853Z,91799.77
2018-04-12T09:23:10.160Z,91796.38
2018-04-12T09:25:36.488Z,91791.75
2018-04-12T09:28:02.759Z,91788.14
2018-04-12T09:30:29.046Z,91787.56
2018-04-12T09:32:55.417Z,91784.95
2018-04-12T09:35:21.711Z,91786.13
2018-04-12T09:37:48.019Z,91783.44
2018-04-12T09:40:14.417Z,91778.47
2018-04-12T09:42:40.771Z,91773.48
2018-04-12T09:45:07.067Z,91775.71
2018-04-12T09:47:33.345Z,91770.70
2018-04-12T09:49:59.635Z,91769.64
2018-04-12T09:52:26.107Z,91767.91
2018-04-12T09:54:52.430Z,91770.98
2018-04-12T09:57:18.808Z,91774.64
2018-04-12T09:59:45.089Z,91765.38
2018-04-12T10:02:11.428Z,91761.16
2018-04-12T10:04:43.884Z,91760.15
2018-04-12T10:07:10.206Z,91761.28
2018-04-12T10:09:36.502Z,91753.14
2018-04-12T10:12:02.845Z,91749.82
2018-04-12T10:14:29.160Z,91751.09
2018-04-12T10:16:55.430Z,91744.16
2018-04-12T10:19:21.886Z,91741.94
2018-04-12T10:21:48.178Z,91731.02
2018-04-12T10:24:14.554Z,91727.22
2018-04-12T10:26:40.884Z,91725.14
2018-04-12T10:29:07.191Z,91724.33
2018-04-12T10:31:33.627Z,91722.33
2018-04-12T10:33:59.894Z,91720.76
2018-04-12T10:36:26.211Z,91722.09
2018-04-12T10:38:52.626Z,91713.41
2018-04-12T10:41:18.913Z,91724.37
2018-04-12T10:43:45.268Z,91722.98
2018-04-12T10:46:11.680Z,91726.38
2018-04-12T10:48:38.010Z,91712.72
2018-04-12T10:51:04.467Z,91717.59
2018-04-12T10:53:31.000Z,91713.45
2018-04-12T10:55:57.347Z,91715.91
2018-04-12T10:58:24.150Z,91713.69
2018-04-12T11:00:50.537Z,91711.77
2018-04-12T11:03:16.918Z,91719.20
2018-04-12T11:05:43.235Z,91713.14
2018-04-12T11:08:09.579Z,91708.73
2018-04-12T11:10:35.855Z,91712.73
2018-04-12T11:13:02.153Z,91706.45
2018-04-12T11:15:28.468Z,91696.22
2018-04-12T11:17:54.734Z,91696.49
2018-04-12T11:20:21.029Z,91705.98
2018-04-12T11:22:47.558Z,91707.22
2018-04-12T11:25:13.868Z,91701.94
2018-04-12T11:27:40.240Z,91700.56
2018-04-12T11:30:06.552Z,91700.77
2018-04-12T11:32:32.837Z,91695.61
2018-04-12T11:34:59.180Z,91695.15
2018-04-12T11:37:25.471Z,91692.98
2018-04-12T11:39:51.741Z,91694.92
2018-04-12T11:42:18.164Z,91691.13
2018-04-12T11:44:46.152Z,91690.84
2018-04-12T11:47:12.434Z,91686.66
2018-04-12T11:49:38.738Z,91682.25
2018-04-12T11:52:05.141Z,91683.90
2018-04-12T11:54:31.447Z,91677.34
2018-04-12T11:56:57.775Z,91673.78
2018-04-12T11:59:24.063Z,91674.41
2018-04-12T12:01:50.413Z,91673.09
2018-04-12T12:04:16.827Z,91671.38
2018-04-12T12:06:43.132Z,91666.70
2018-04-12T12:09:09.547Z,91670.15
2018-04-12T12:11:35.830Z,91659.48
2018-04-12T12:14:02.112Z,91661.21
2018-04-12T12:16:28.500Z,91656.71
2018-04-12T12:18:54.786Z,91659.05
2018-04-12T12:21:21.103Z,91654.82
2018-04-12T12:23:47.467Z,91647.05
2018-04-12T12:26:13.765Z,91653.11
2018-04-12T12:28:40.044Z,91651.44
2018-04-12T12:31:06.385Z,91639.77
2018-04-12T12:33:32.704Z,91643.91
2018-04-12T12:35:58.978Z,91638.73
2018-04-12T12:38:25.722Z,91643.56
2018-04-12T12:40:52.224Z,91638.33
2018-04-12T12:43:18.525Z,91643.18
2018-04-12T12:45:44.838Z,91637.33
2018-04-12T12:48:11.137Z,91634.90
2018-04-12T12:50:37.419Z,91633.19
2018-04-12T12:53:03.811Z,91638.71
2018-04-12T12:55:30.112Z,91632.50
2018-04-12T12:57:56.464Z,91634.23
2018-04-12T13:00:22.891Z,91632.48
2018-04-12T13:02:49.314Z,91630.09
2018-04-12T13:05:15.639Z,91633.19
2018-04-12T13:07:41.954Z,91628.70
2018-04-12T13:10:08.456Z,91628.36
2018-04-12T13:12:34.775Z,91620.02
2018-04-12T13:15:01.117Z,91619.54
2018-04-12T13:17:27.423Z,91612.98
2018-04-12T13:19:53.785Z,91617.87
2018-04-12T13:22:20.107Z,91616.16
2018-04-12T13:27:40.779Z,91618.88
2018-04-12T13:30:07.238Z,91617.15
2018-04-12T13:32:33.568Z,91617.06
2018-04-12T13:35:00.030Z,91616.07
2018-04-12T13:37:26.459Z,91614.60
2018-04-12T13:39:52.808Z,91606.13
2018-04-12T13:42:19.148Z,91607.99
2018-04-12T13:44:45.510Z,91613.90
2018-04-12T13:47:11.827Z,91609.92
2018-04-12T13:49:38.187Z,91605.69
2018-04-12T13:52:04.586Z,91607.05
2018-04-12T13:54:30.919Z,91598.66
2018-04-12T13:56:57.403Z,91604.73
2018-04-12T13:59:23.750Z,91597.58
2018-04-12T14:01:50.120Z,91601.00
2018-04-12T14:04:16.536Z,91603.28
2018-04-12T14:06:42.866Z,91598.38
2018-04-12T14:09:09.184Z,91600.95
2018-04-12T14:11:35.501Z,91591.94
2018-04-12T14:14:01.808Z,91597.77
2018-04-12T14:16:28.098Z,91596.95
2018-04-12T14:18:54.494Z,91605.55
2018-04-12T14:21:20.772Z,91601.00
2018-04-12T14:23:47.052Z,91598.48
2018-04-12T14:26:13.369Z,91592.73
2018-04-12T14:28:39.737Z,91597.30
2018-04-12T14:31:06.156Z,91602.88
2018-04-12T14:33:35.313Z,91601.95
2018-04-12T14:36:01.632Z,91597.03
2018-04-12T14:38:28.192Z,91595.60
2018-04-12T14:40:54.472Z,91597.35
2018-04-12T14:43:20.774Z,91600.63
2018-04-12T14:45:47.131Z,91592.36
2018-04-12T14:48:13.411Z,91598.03
2018-04-12T14:50:39.699Z,91595.65
2018-04-12T14:53:06.033Z,91601.65
2018-04-12T14:55:32.324Z,91585.55
2018-04-12T14:57:58.614Z,91603.45
2018-04-12T15:00:25.347Z,91599.05
2018-04-12T15:02:51.652Z,91603.80
2018-04-12T15:05:18.071Z,91597.91
2018-04-12T15:07:44.360Z,91600.77
2018-04-12T15:10:10.648Z,91603.73
2018-04-12T15:12:36.972Z,91600.67
2018-04-12T15:15:03.770Z,91603.09
2018-04-12T15:17:30.072Z,91600.73
2018-04-12T15:19:56.577Z,91602.34
2018-04-12T15:22:22.880Z,91609.82
2018-04-12T15:24:49.154Z,91612.20
2018-04-12T15:27:15.790Z,91609.59
2018-04-12T15:29:42.133Z,91610.78
2018-04-12T15:32:08.430Z,91612.51
2018-04-12T15:34:34.960Z,91611.83
2018-04-12T15:37:01.298Z,91609.56
2018-04-12T15:39:27.610Z,91621.28
2018-04-12T15:41:53.893Z,91619.92
2018-04-12T15:44:20.224Z,91618.75
2018-04-12T15:46:46.521Z,91629.02
2018-04-12T15:49:12.812Z,91621.66
2018-04-12T15:51:39.492Z,91624.08
2018-04-12T15:54:05.796Z,91632.45
2018-04-12T15:56:32.142Z,91622.20
2018-04-12T15:58:59.113Z,91621.48
2018-04-12T16:01:25.753Z,91625.92
2018-04-12T16:03:52.043Z,91627.98
2018-04-12T16:06:18.334Z,91626.67
2018-04-12T16:08:44.797Z,91626.44
2018-04-12T16:11:11.087Z,91619.81
2018-04-12T16:13:37.363Z,91626.39
2018-04-12T16:16:03.711Z,91629.90
2018-04-12T16:18:30.388Z,91632.23
2018-04-12T16:20:56.822Z,91627.88
2018-04-12T16:23:23.152Z,91629.05
2018-04-12T16:25:49.500Z,91643.14
2018-04-12T16:28:15.792Z,91639.46
2018-04-12T16:30:42.167Z,91643.09
2018-04-12T16:33:08.553Z,91641.59
2018-04-12T16:35:34.878Z,91647.91
2018-04-12T16:38:01.442Z,91644.78
2018-04-12T16:40:28.035Z,91646.60
2018-04-12T16:42:57.622Z,91650.48
2018-04-12T16:45:23.929Z,91657.80
2018-04-12T16:47:50.207Z,91649.45
2018-04-12T16:50:16.653Z,91656.21
2018-04-12T16:52:42.993Z,91656.44
2018-04-12T16:55:09.280Z,91658.33
2018-04-12T16:57:35.610Z,91667.33
2018-04-12T17:00:02.009Z,91667.64
2018-04-12T17:02:28.486Z,91669.22
2018-04-12T17:04:54.827Z,91684.65
2018-04-12T17:07:21.099Z,91684.52
2018-04-12T17:09:47.387Z,91690.34
2018-04-12T17:12:13.808Z,91697.79
2018-04-12T17:14:40.155Z,91694.19
2018-04-12T17:17:06.487Z,91698.24
2018-04-12T17:19:33.057Z,91695.05
2018-04-12T17:21:59.443Z,91701.13
2018-04-12T17:24:25.772Z,91704.38
2018-04-12T17:26:52.077Z,91708.97
2018-04-12T17:29:18.483Z,91710.19
2018-04-12T17:31:44.993Z,91714.02
2018-04-12T17:34:11.273Z,91725.82
2018-04-12T17:36:37.901Z,91723.53
2018-04-12T17:39:05.028Z,91728.05
2018-04-12T17:41:31.308Z,91738.35
2018-04-12T17:43:57.647Z,91737.27
2018-04-12T17:46:24.040Z,91733.95
2018-04-12T17:48:50.339Z,91738.34
2018-04-12T17:51:16.684Z,91745.19
2018-04-12T17:53:43.219Z,91745.94
2018-04-12T17:56:09.691Z,91749.39
2018-04-12T17:58:35.976Z,91764.47
2018-04-12T18:01:02.856Z,91764.23
2018-04-12T18:03:29.236Z,91764.20
2018-04-12T18:05:55.580Z,91761.87
2018-04-12T18:08:21.927Z,91765.27
2018-04-12T18:10:48.404Z,91771.31
2018-04-12T18:13:14.708Z,91772.52
2018-04-12T18:15:40.991Z,91772.83
2018-04-12T18:18:07.332Z,91778.80
2018-04-12T18:20:33.648Z,91780.53
2018-04-12T18:22:59.989Z,91781.96
2018-04-12T18:25:26.379Z,91785.38
2018-04-12T18:27:52.817Z,91801.14
2018-04-12T18:30:19.192Z,91807.31
2018-04-12T18:32:45.664Z,91811.05
2018-04-12T18:35:15.006Z,91814.81
2018-04-12T18:37:41.527Z,91826.61
2018-04-12T18:40:10.547Z,91826.66
2018-04-12T18:42:36.910Z,91829.50
2018-04-12T18:45:03.248Z,91838.44
2018-04-12T18:47:29.646Z,91841.76
2018-04-12T18:49:55.940Z,91843.86
2018-04-12T18:52:22.429Z,91851.05
2018-04-12T18:54:48.726Z,91854.55
2018-04-12T18:57:15.076Z,91858.84
2018-04-12T18:59:41.369Z,91864.55
2018-04-12T19:02:07.853Z,91863.13
2018-04-12T19:04:34.147Z,91857.22
2018-04-12T19:07:00.539Z,91860.14
2018-04-12T19:09:27.066Z,91855.66
2018-04-12T19:11:53.416Z,91856.42
2018-04-12T19:14:19.806Z,91860.34
2018-04-12T19:16:46.232Z,91867.94
2018-04-12T19:19:12.548Z,91872.45
2018-04-12T19:21:38.885Z,91870.50
2018-04-12T19:24:05.197Z,91868.25
2018-04-12T19:26:31.648Z,91872.02
2018-04-12T19:28:57.981Z,91866.64
2018-04-12T19:31:24.266Z,91868.59
2018-04-12T19:33:50.652Z,91870.20
2018-04-12T19:36:17.979Z,91876.33
2018-04-12T19:38:44.288Z,91880.55
2018-04-12T19:44:05.416Z,91876.80
2018-04-12T19:46:31.822Z,91877.93
2018-04-12T19:48:58.100Z,91878.80
2018-04-12T19:51:24.471Z,91886.25
2018-04-12T19:53:50.815Z,91893.00
2018-04-12T19:56:17.142Z,91889.99
2018-04-12T19:58:43.466Z,91894.22
2018-04-12T20:01:09.753Z,91898.14
2018-04-12T20:03:36.037Z,91902.47
2018-04-12T20:06:02.486Z,91902.97
2018-04-12T20:08:28.774Z,91901.45
2018-04-12T20:10:55.161Z,91904.01
2018-04-12T20:13:21.450Z,91904.80
2018-04-12T20:15:47.721Z,91904.59
2018-04-12T20:18:14.111Z,91910.25
2018-04-12T20:20:40.397Z,91909.96
2018-04-12T20:23:06.682Z,91915.31
2018-04-12T20:25:32.992Z,91915.33
2018-04-12T20:27:59.305Z,91915.33
2018-04-12T20:30:25.579Z,91915.39
2018-04-12T20:32:52.148Z,91910.25
2018-04-12T20:35:18.499Z,91913.66
2018-04-12T20:37:44.767Z,91916.36
2018-04-12T20:40:11.117Z,91912.66
2018-04-12T20:42:37.471Z,91911.55
2018-04-12T20:45:03.925Z,91912.78
2018-04-12T20:47:30.213Z,91917.36
2018-04-12T20:49:56.485Z,91911.42
2018-04-12T20:52:23.184Z,91918.23
2018-04-12T20:54:52.565Z,91918.41
2018-04-12T20:57:18.988Z,91915.17
2018-04-12T20:59:45.311Z,91920.79
2018-04-12T21:02:14.691Z,91923.09
2018-04-12T21:04:40.971Z,91923.97
2018-04-12T21:07:07.442Z,91923.88
2018-04-12T21:09:33.722Z,91923.84
2018-04-12T21:12:00.111Z,91918.34
2018-04-12T21:14:26.399Z,91924.22
2018-04-12T21:16:52.711Z,91923.06
2018-04-12T21:19:19.076Z,91923.34
2018-04-12T21:21:45.453Z,91925.43
2018-04-12T21:24:11.799Z,91931.66
2018-04-12T21:26:38.134Z,91930.67
2018-04-12T21:29:04.535Z,91934.22
2018-04-12T21:31:30.807Z,91934.70
2018-04-12T21:33:57.351Z,91937.13
2018-04-12T21:36:23.751Z,91941.53
2018-04-12T21:38:50.084Z,91941.80
2018-04-12T21:41:16.390Z,91949.48
2018-04-12T21:43:42.795Z,91950.20
2018-04-12T21:46:09.075Z,91963.31
2018-04-12T21:48:35.371Z,91967.87
2018-04-12T21:51:01.747Z,91965.34
2018-04-12T21:53:28.039Z,91964.47
2018-04-12T21:55:54.336Z,91960.37
2018-04-12T21:58:20.722Z,91958.50
2018-04-12T22:00:47.032Z,91960.71
2018-04-12T22:03:13.438Z,91952.54
2018-04-12T22:05:39.903Z,91959.10
2018-04-12T22:08:06.313Z,91954.75
2018-04-12T22:10:32.703Z,91953.77
2018-04-12T22:13:02.284Z,91962.27
2018-04-12T22:15:28.676Z,91962.64
2018-04-12T22:17:55.066Z,91962.41
2018-04-12T22:20:21.528Z,91965.20
2018-04-12T22:22:47.963Z,91966.78
2018-04-12T22:25:14.366Z,91967.19
2018-04-12T22:27:40.823Z,91964.38
2018-04-12T22:30:07.236Z,91966.94
2018-04-12T22:32:33.926Z,91970.34
2018-04-12T22:35:00.307Z,91971.06
2018-04-12T22:37:28.881Z,91967.80
2018-04-12T22:39:55.317Z,91961.14
2018-04-12T22:42:21.776Z,91959.23
2018-04-12T22:44:48.176Z,91956.31
2018-04-12T22:47:17.755Z,91959.78
2018-04-12T22:49:44.154Z,91962.91
2018-04-12T22:52:10.538Z,91962.44
2018-04-12T22:54:37.033Z,91959.22
2018-04-12T22:57:03.451Z,91946.97
2018-04-12T22:59:29.847Z,91955.83
2018-04-12T23:01:56.327Z,91958.95
2018-04-12T23:04:22.988Z,91964.61
2018-04-12T23:06:49.444Z,91964.00
2018-04-12T23:09:15.875Z,91964.69
2018-04-12T23:11:42.292Z,91960.61
2018-04-12T23:14:08.689Z,91958.38
2018-04-12T23:16:35.184Z,91961.52
2018-04-12T23:19:01.636Z,91956.05
2018-04-12T23:21:28.064Z,91955.12
2018-04-12T23:23:54.582Z,91958.86
2018-04-12T23:26:20.994Z,91961.45
2018-04-12T23:28:47.389Z,91956.45
2018-04-12T23:31:13.811Z,91946.87
2018-04-12T23:33:40.204Z,91948.79
2018-04-12T23:36:06.598Z,91954.69
2018-04-12T23:38:33.208Z,91952.24
2018-04-12T23:40:59.627Z,91947.25
2018-04-12T23:43:26.032Z,91947.00
2018-04-12T23:45:52.564Z,91951.63
2018-04-12T23:48:18.976Z,91950.64
2018-04-12T23:50:45.420Z,91955.28
2018-04-12T23:53:11.805Z,91955.16
2018-04-12T23:55:38.293Z,91953.73
2018-04-12T23:58:04.743Z,91947.43
